createdAt,value
2019-05-21T00:00:02.823Z,38.10
2019-05-21T00:03:24.938Z,38.93
2019-05-21T00:06:47.506Z,38.47
2019-05-21T00:10:10.142Z,36.97
2019-05-21T00:13:32.578Z,37.60
2019-05-21T00:16:54.743Z,34.83
2019-05-21T00:20:17.135Z,35.13
2019-05-21T00:23:39.670Z,35.37
2019-05-21T00:27:01.940Z,34.30
2019-05-21T00:31:01.006Z,37.17
2019-05-21T00:35:00.015Z,35.97
2019-05-21T00:38:58.708Z,34.33
2019-05-21T00:42:30.087Z,34.87
2019-05-21T00:45:52.461Z,35.23
2019-05-21T00:49:14.826Z,35.83
2019-05-21T00:52:37.084Z,35.83
2019-05-21T00:55:59.486Z,36.50
2019-05-21T00:59:22.132Z,35.97
2019-05-21T01:02:44.610Z,37.00
2019-05-21T01:06:07.533Z,36.27
2019-05-21T01:09:29.990Z,34.63
2019-05-21T01:12:52.655Z,32.63
2019-05-21T01:16:15.518Z,33.63
2019-05-21T01:19:38.390Z,32.03
2019-05-21T01:23:01.245Z,32.57
2019-05-21T01:26:24.105Z,34.40
2019-05-21T01:29:47.008Z,32.67
2019-05-21T01:33:09.774Z,33.00
2019-05-21T01:36:32.308Z,32.83
2019-05-21T01:39:55.446Z,32.57
2019-05-21T01:43:17.895Z,31.47
2019-05-21T01:46:40.239Z,33.77
2019-05-21T01:50:02.279Z,31.07
2019-05-21T01:53:24.902Z,33.23
2019-05-21T01:56:47.390Z,31.00
2019-05-21T02:00:09.688Z,31.60
2019-05-21T02:03:32.207Z,31.27
2019-05-21T02:06:54.311Z,32.33
2019-05-21T02:10:16.793Z,30.43
2019-05-21T02:13:39.272Z,30.33
2019-05-21T02:17:01.919Z,30.07
2019-05-21T02:20:24.069Z,32.40
2019-05-21T02:23:46.531Z,30.80
2019-05-21T02:27:09.174Z,30.57
2019-05-21T02:30:31.949Z,29.83
2019-05-21T02:33:54.688Z,30.23
2019-05-21T02:37:17.575Z,28.60
2019-05-21T02:40:39.734Z,29.17
2019-05-21T02:44:02.153Z,29.63
2019-05-21T02:47:24.653Z,28.80
2019-05-21T02:50:46.888Z,28.97
2019-05-21T02:54:09.819Z,27.97
2019-05-21T02:57:40.501Z,28.10
2019-05-21T03:01:17.711Z,28.57
2019-05-21T03:04:39.376Z,28.50
2019-05-21T03:08:01.483Z,28.07
2019-05-21T03:11:23.909Z,29.57
2019-05-21T03:14:47.011Z,28.13
2019-05-21T03:18:09.464Z,29.13
2019-05-21T03:21:31.904Z,27.80
2019-05-21T03:24:54.627Z,28.10
2019-05-21T03:28:17.250Z,26.33
2019-05-21T03:31:39.894Z,27.10
2019-05-21T03:35:02.942Z,26.87
2019-05-21T03:38:25.382Z,24.23
2019-05-21T03:41:48.236Z,20.47
2019-05-21T03:45:11.479Z,19.43
2019-05-21T03:48:34.002Z,17.00
2019-05-21T03:51:56.796Z,16.17
2019-05-21T03:55:19.212Z,15.70
2019-05-21T03:58:41.574Z,15.07
2019-05-21T04:02:03.904Z,14.20
2019-05-21T04:05:26.539Z,14.33
2019-05-21T04:08:49.143Z,14.03
2019-05-21T04:12:11.364Z,13.60
2019-05-21T04:15:33.574Z,12.78
2019-05-21T04:19:02.342Z,12.65
2019-05-21T04:22:24.832Z,12.63
2019-05-21T04:25:47.396Z,12.88
2019-05-21T04:29:09.738Z,12.60
2019-05-21T04:32:32.159Z,12.65
2019-05-21T04:35:54.487Z,13.00
2019-05-21T04:39:16.581Z,12.73
2019-05-21T04:42:39.164Z,11.57
2019-05-21T04:46:01.469Z,11.83
2019-05-21T04:49:23.904Z,10.60
2019-05-21T04:52:46.070Z,10.60
2019-05-21T04:56:08.487Z,10.70
2019-05-21T04:59:31.114Z,11.30
2019-05-21T05:02:53.697Z,11.08
2019-05-21T05:06:15.815Z,11.43
2019-05-21T05:09:42.688Z,10.55
2019-05-21T05:13:08.593Z,9.90
2019-05-21T05:16:31.100Z,10.43
2019-05-21T05:19:53.586Z,11.38
2019-05-21T05:23:18.971Z,11.68
2019-05-21T05:26:41.806Z,10.88
2019-05-21T05:30:05.214Z,11.53
2019-05-21T05:33:27.339Z,11.33
2019-05-21T05:36:49.809Z,11.03
2019-05-21T05:40:13.746Z,10.00
2019-05-21T05:43:36.382Z,10.68
2019-05-21T05:46:58.852Z,10.98
2019-05-21T05:50:24.397Z,11.80
2019-05-21T05:53:58.736Z,9.95
2019-05-21T05:57:21.260Z,9.70
2019-05-21T06:00:43.681Z,9.90
2019-05-21T06:04:06.353Z,9.73
2019-05-21T06:07:28.955Z,9.95
2019-05-21T06:10:51.260Z,9.73
2019-05-21T06:14:13.917Z,9.88
2019-05-21T06:17:36.664Z,9.43
2019-05-21T06:20:59.383Z,8.98
2019-05-21T06:24:21.901Z,9.20
2019-05-21T06:27:44.300Z,9.33
2019-05-21T06:31:07.122Z,9.60
2019-05-21T06:34:29.832Z,10.08
2019-05-21T06:37:52.427Z,10.05
2019-05-21T06:41:15.176Z,9.78
2019-05-21T06:44:38.105Z,9.18
2019-05-21T06:48:00.739Z,9.98
2019-05-21T06:51:23.514Z,13.05
2019-05-21T06:54:46.427Z,10.35
2019-05-21T06:58:09.299Z,9.15
2019-05-21T07:01:31.993Z,6.87
2019-05-21T07:04:54.830Z,11.03
2019-05-21T07:08:32.035Z,7.80
2019-05-21T07:11:41.230Z,8.83
2019-05-21T07:15:04.238Z,8.08
2019-05-21T07:18:27.013Z,8.93
2019-05-21T07:21:49.662Z,8.70
2019-05-21T07:25:12.707Z,8.65
2019-05-21T07:28:35.057Z,8.13
2019-05-21T07:31:57.570Z,7.67
2019-05-21T07:35:20.167Z,7.00
2019-05-21T07:38:52.751Z,5.33
2019-05-21T07:42:06.765Z,5.33
2019-05-21T07:45:29.162Z,6.05
2019-05-21T07:48:52.103Z,5.90
2019-05-21T07:52:14.479Z,6.45
2019-05-21T07:55:36.578Z,5.83
2019-05-21T07:58:59.260Z,5.97
2019-05-21T08:02:21.609Z,5.67
2019-05-21T08:05:43.957Z,6.42
2019-05-21T08:09:13.201Z,6.67
2019-05-21T08:12:38.770Z,6.83
2019-05-21T08:15:54.687Z,5.10
2019-05-21T08:19:17.101Z,5.67
2019-05-21T08:22:39.618Z,5.55
2019-05-21T08:26:02.246Z,4.53
2019-05-21T08:29:24.976Z,4.70
2019-05-21T08:32:47.664Z,3.80
2019-05-21T08:36:10.039Z,4.70
2019-05-21T08:39:32.543Z,3.80
2019-05-21T08:42:55.217Z,4.90
2019-05-21T08:46:17.659Z,4.40
2019-05-21T08:49:40.095Z,4.35
2019-05-21T08:53:02.669Z,4.05
2019-05-21T08:56:25.486Z,4.40
2019-05-21T08:59:48.767Z,3.92
2019-05-21T09:03:11.166Z,4.42
2019-05-21T09:06:33.654Z,3.80
2019-05-21T09:09:55.940Z,6.05
2019-05-21T09:13:18.921Z,3.77
2019-05-21T09:16:41.834Z,3.15
2019-05-21T09:20:05.428Z,4.20
2019-05-21T09:23:27.985Z,3.35
2019-05-21T09:26:50.759Z,3.62
2019-05-21T09:30:14.366Z,3.50
2019-05-21T09:33:36.933Z,3.87
2019-05-21T09:36:59.608Z,3.58
2019-05-21T09:40:24.246Z,3.80
2019-05-21T09:43:47.590Z,3.45
2019-05-21T09:47:10.280Z,4.75
2019-05-21T09:50:32.810Z,3.90
2019-05-21T09:53:55.516Z,4.00
2019-05-21T09:57:23.256Z,4.35
2019-05-21T10:01:17.221Z,3.87
2019-05-21T10:04:39.522Z,4.17
2019-05-21T10:08:02.018Z,4.12
2019-05-21T10:11:24.536Z,3.33
2019-05-21T10:14:47.427Z,3.47
2019-05-21T10:18:09.955Z,4.00
2019-05-21T10:21:32.479Z,4.03
2019-05-21T10:24:55.248Z,4.30
2019-05-21T10:28:17.829Z,4.10
2019-05-21T10:31:40.506Z,5.10
2019-05-21T10:35:04.351Z,4.53
2019-05-21T10:38:27.332Z,4.40
2019-05-21T10:41:49.773Z,4.72
2019-05-21T10:45:12.540Z,4.30
2019-05-21T10:48:34.687Z,4.80
2019-05-21T10:51:56.907Z,4.70
2019-05-21T10:55:18.988Z,8.20
2019-05-21T10:58:41.373Z,15.35
2019-05-21T11:02:11.417Z,5.08
2019-05-21T11:05:36.251Z,5.80
2019-05-21T11:08:58.971Z,5.50
2019-05-21T11:12:20.960Z,4.80
2019-05-21T11:15:43.645Z,7.08
2019-05-21T11:19:06.063Z,6.20
2019-05-21T11:22:28.690Z,4.75
2019-05-21T11:25:51.209Z,4.60
2019-05-21T11:29:13.478Z,4.35
2019-05-21T11:32:35.665Z,4.03
2019-05-21T11:35:58.052Z,4.40
2019-05-21T11:39:20.412Z,4.33
2019-05-21T11:42:43.035Z,4.15
2019-05-21T11:46:05.671Z,3.80
2019-05-21T11:49:28.058Z,5.90
2019-05-21T11:52:50.681Z,5.05
2019-05-21T11:56:13.211Z,5.10
2019-05-21T11:59:35.555Z,4.40
2019-05-21T12:02:58.233Z,3.62
2019-05-21T12:06:20.865Z,4.17
2019-05-21T12:09:43.114Z,4.00
2019-05-21T12:13:05.576Z,3.47
2019-05-21T12:16:28.207Z,5.08
2019-05-21T12:19:50.682Z,3.75
2019-05-21T12:23:13.178Z,4.80
2019-05-21T12:26:35.587Z,4.03
2019-05-21T12:29:58.043Z,3.83
2019-05-21T12:33:20.157Z,4.58
2019-05-21T12:36:42.824Z,6.45
2019-05-21T12:40:07.958Z,4.83
2019-05-21T12:43:30.271Z,3.85
2019-05-21T12:46:52.927Z,4.25
2019-05-21T12:50:16.683Z,3.60
2019-05-21T12:53:38.816Z,3.60
2019-05-21T12:57:01.391Z,3.83
2019-05-21T13:00:28.944Z,4.40
2019-05-21T13:03:51.489Z,3.67
2019-05-21T13:07:15.554Z,3.90
2019-05-21T13:10:37.958Z,4.72
2019-05-21T13:14:00.409Z,7.35
2019-05-21T13:17:22.791Z,4.12
2019-05-21T13:20:45.209Z,3.90
2019-05-21T13:24:07.654Z,4.15
2019-05-21T13:27:29.884Z,3.95
2019-05-21T13:30:52.141Z,4.25
2019-05-21T13:34:14.885Z,4.67
2019-05-21T13:37:37.518Z,4.05
2019-05-21T13:41:01.792Z,4.70
2019-05-21T13:44:24.542Z,4.53
2019-05-21T13:47:47.283Z,3.98
2019-05-21T13:51:10.155Z,5.12
2019-05-21T13:54:32.688Z,4.62
2019-05-21T13:57:55.412Z,4.30
2019-05-21T14:01:18.902Z,5.15
2019-05-21T14:04:41.343Z,4.08
2019-05-21T14:08:03.912Z,4.28
2019-05-21T14:11:26.484Z,4.95
2019-05-21T14:14:48.752Z,4.00
2019-05-21T14:18:11.104Z,4.75
2019-05-21T14:21:33.251Z,4.92
2019-05-21T14:24:55.317Z,4.30
2019-05-21T14:28:17.759Z,4.75
2019-05-21T14:31:40.220Z,6.22
2019-05-21T14:35:02.895Z,4.12
2019-05-21T14:38:25.410Z,4.90
2019-05-21T14:41:47.996Z,4.45
2019-05-21T14:45:10.896Z,7.62
2019-05-21T14:48:33.391Z,5.75
2019-05-21T14:51:55.839Z,11.53
2019-05-21T14:55:18.499Z,6.97
2019-05-21T14:58:41.074Z,6.03
2019-05-21T15:02:05.956Z,6.80
2019-05-21T15:05:28.622Z,6.75
2019-05-21T15:08:50.942Z,7.95
2019-05-21T15:12:13.412Z,7.42
2019-05-21T15:15:36.446Z,7.50
2019-05-21T15:18:59.027Z,7.65
2019-05-21T15:22:21.498Z,7.12
2019-05-21T15:25:43.588Z,7.85
2019-05-21T15:29:06.208Z,7.28
2019-05-21T15:32:30.702Z,7.00
2019-05-21T15:35:53.049Z,6.70
2019-05-21T15:39:15.823Z,7.75
2019-05-21T15:42:37.972Z,6.95
2019-05-21T15:46:00.711Z,6.70
2019-05-21T15:49:35.434Z,6.92
2019-05-21T15:52:47.386Z,6.75
2019-05-21T15:56:10.154Z,7.67
2019-05-21T15:59:32.582Z,7.08
2019-05-21T16:02:55.360Z,7.80
2019-05-21T16:06:18.393Z,6.75
2019-05-21T16:09:41.027Z,6.55
2019-05-21T16:13:03.895Z,5.92
2019-05-21T16:16:26.311Z,5.40
2019-05-21T16:19:48.759Z,4.95
2019-05-21T16:23:10.883Z,4.62
2019-05-21T16:26:33.312Z,4.03
2019-05-21T16:29:55.731Z,4.30
2019-05-21T16:33:18.465Z,4.33
2019-05-21T16:36:41.254Z,4.60
2019-05-21T16:40:04.599Z,4.67
2019-05-21T16:43:27.268Z,4.90
2019-05-21T16:46:49.719Z,4.50
2019-05-21T16:50:12.099Z,4.55
2019-05-21T16:53:34.755Z,4.55
2019-05-21T16:56:57.175Z,4.83
2019-05-21T17:00:21.882Z,4.67
2019-05-21T17:03:57.772Z,5.58
2019-05-21T17:07:08.242Z,6.25
2019-05-21T17:10:30.653Z,5.47
2019-05-21T17:13:53.069Z,5.40
2019-05-21T17:17:15.509Z,5.92
2019-05-21T17:20:38.052Z,7.42
2019-05-21T17:24:00.590Z,6.85
2019-05-21T17:27:22.997Z,5.92
2019-05-21T17:30:45.536Z,5.60
2019-05-21T17:34:08.143Z,5.58
2019-05-21T17:37:30.818Z,5.97
2019-05-21T17:40:53.584Z,5.10
2019-05-21T17:44:15.618Z,6.35
2019-05-21T17:47:38.379Z,5.53
2019-05-21T17:51:00.664Z,5.78
2019-05-21T17:54:23.707Z,5.55
2019-05-21T17:57:46.309Z,6.25
2019-05-21T18:01:10.073Z,8.95
2019-05-21T18:04:32.836Z,6.05
2019-05-21T18:07:55.773Z,6.58
2019-05-21T18:11:18.425Z,6.37
2019-05-21T18:14:41.511Z,6.17
2019-05-21T18:18:04.751Z,6.40
2019-05-21T18:21:27.618Z,5.67
2019-05-21T18:24:50.711Z,9.58
2019-05-21T18:28:13.132Z,7.65
2019-05-21T18:31:35.833Z,5.85
2019-05-21T18:34:58.385Z,5.67
2019-05-21T18:38:21.326Z,6.28
2019-05-21T18:41:43.369Z,5.90
2019-05-21T18:45:06.152Z,6.20
2019-05-21T18:48:31.714Z,5.47
2019-05-21T18:51:54.669Z,6.37
2019-05-21T18:55:17.203Z,9.23
2019-05-21T18:58:40.152Z,7.87
2019-05-21T19:02:03.079Z,7.67
2019-05-21T19:05:25.708Z,5.80
2019-05-21T19:08:47.983Z,6.40
2019-05-21T19:12:10.342Z,5.83
2019-05-21T19:15:32.735Z,7.45
2019-05-21T19:18:55.103Z,6.70
2019-05-21T19:22:17.160Z,6.62
2019-05-21T19:25:39.862Z,6.95
2019-05-21T19:29:02.371Z,7.93
2019-05-21T19:32:24.875Z,7.67
2019-05-21T19:35:47.220Z,11.60
2019-05-21T19:39:09.412Z,29.20
2019-05-21T19:42:31.596Z,15.23
2019-05-21T19:45:53.798Z,10.97
2019-05-21T19:49:15.974Z,10.40
2019-05-21T19:52:38.199Z,10.90
2019-05-21T19:56:01.067Z,11.43
2019-05-21T19:59:23.630Z,11.13
2019-05-21T20:02:48.487Z,12.50
2019-05-21T20:06:12.099Z,11.90
2019-05-21T20:09:36.072Z,12.10
2019-05-21T20:12:58.785Z,12.70
2019-05-21T20:16:22.014Z,13.23
2019-05-21T20:19:46.582Z,14.10
2019-05-21T20:23:10.428Z,14.17
2019-05-21T20:26:34.371Z,16.40
2019-05-21T20:30:11.518Z,12.40
2019-05-21T20:33:23.485Z,8.90
2019-05-21T20:36:46.186Z,8.80
2019-05-21T20:40:10.723Z,8.47
2019-05-21T20:43:33.237Z,10.47
2019-05-21T20:46:57.020Z,9.83
2019-05-21T20:50:22.144Z,17.67
2019-05-21T20:53:46.001Z,15.50
2019-05-21T20:57:09.927Z,17.63
2019-05-21T21:00:43.294Z,12.13
2019-05-21T21:04:06.241Z,11.10
2019-05-21T21:07:30.276Z,10.03
2019-05-21T21:10:52.724Z,10.10
2019-05-21T21:14:18.232Z,7.63
2019-05-21T21:17:40.316Z,7.47
2019-05-21T21:21:02.459Z,7.60
2019-05-21T21:24:24.919Z,6.87
2019-05-21T21:27:47.435Z,7.47
2019-05-21T21:31:10.205Z,7.33
2019-05-21T21:34:32.759Z,7.53
2019-05-21T21:37:55.098Z,8.00
2019-05-21T21:41:18.779Z,8.57
2019-05-21T21:44:41.819Z,8.53
2019-05-21T21:48:04.148Z,8.90
2019-05-21T21:51:26.323Z,8.83
2019-05-21T21:54:48.923Z,9.90
2019-05-21T21:58:11.694Z,8.47
2019-05-21T22:01:51.012Z,10.77
2019-05-21T22:05:14.039Z,9.63
2019-05-21T22:08:36.665Z,11.17
2019-05-21T22:11:59.964Z,11.20
2019-05-21T22:15:22.940Z,10.57
2019-05-21T22:18:45.506Z,9.63
2019-05-21T22:22:09.993Z,11.33
2019-05-21T22:25:32.534Z,10.97
2019-05-21T22:28:55.523Z,12.20
2019-05-21T22:32:17.695Z,11.50
2019-05-21T22:35:39.906Z,11.90
2019-05-21T22:39:02.224Z,11.43
2019-05-21T22:42:25.498Z,13.57
2019-05-21T22:45:47.723Z,14.87
2019-05-21T22:49:10.872Z,15.30
2019-05-21T22:52:33.750Z,17.53
2019-05-21T22:55:56.955Z,17.67
2019-05-21T22:59:20.002Z,18.93
2019-05-21T23:02:44.753Z,19.03
2019-05-21T23:06:07.552Z,19.40
2019-05-21T23:09:30.522Z,21.90
2019-05-21T23:12:54.252Z,22.80
2019-05-21T23:16:16.803Z,23.50
2019-05-21T23:19:39.550Z,24.77
2019-05-21T23:23:03.616Z,26.03
2019-05-21T23:26:26.117Z,31.27
2019-05-21T23:29:49.647Z,30.13
2019-05-21T23:33:15.092Z,32.13
2019-05-21T23:36:38.015Z,33.87
2019-05-21T23:40:00.829Z,34.00
2019-05-21T23:43:23.444Z,35.27
2019-05-21T23:46:45.766Z,38.13
2019-05-21T23:50:11.824Z,38.40
2019-05-21T23:53:34.725Z,41.57
2019-05-21T23:56:57.699Z,43.43
